Terminal Aerodrome Forecast
Issued by NWS Omaha/Valley, NE

Home | Current Version | Previous Version | Text Only | Print | Product List | Glossary Off
Versions: 1 2 3 4 5 6 7 8 9 10 11 12 13 14 15 16 17 18 19 20 21 22 23 24 25 26 27 28 29 30 31 32 33 34 35 36

000
FTUS43 KOAX 231130
TAFOFK
TAF
KOFK 231130Z 2312/2412 29009KT 5SM BR SCT015 BKN150
     FM231300 33013G20KT P6SM BKN150
     FM231600 33018G28KT P6SM SCT040 BKN150
      TEMPO 2316/2320 5SM -SHRA BKN040
     FM232000 33020G30KT P6SM OVC035
     FM240500 33023G33KT P6SM OVC035=

USA.gov is the U.S. government's official web portal to all federal, state and local government web resources and services.